Edisongracht — PDUJ — position and weather

sailwx.info

Track history (hours):
 
Tides and Currents Weather Stations Pressure Air Temp Water Temp Dewpoint Dewpoint Depression Visibility Wind Speed Wind Dir Waves Ship Positions

Edisongracht

Last reported at 2017-Jan-23 15:26 UTC. Time now 2017-Jan-23 19:02 UTC.
Position N 49°40' W 003°45'.

Length 136 m; beam 19 m; draft 9 m.

Type: Cargo ship. MMSI: 244262000.

Date/timePositionNaut miles runAvg speedWind from/ knotsBaromVisibWave heightAir tempDewpointWater temp
2017-Jan-23 15:26N 49°40' W 003°45'1011.7
2017-Jan-23 14:33N 49°46' W 003°32'1212.0
2017-Jan-23 13:33N 49°52' W 003°16'1212.5
2017-Jan-23 12:33N 49°57' W 002°58'4213.9
2017-Jan-23 09:32N 50°09' W 001°55'1413.8
2017-Jan-23 08:30N 50°13' W 001°34'1213.1
2017-Jan-23 07:34N 50°17' W 001°16'1212.2
2017-Jan-23 06:33N 50°21' W 000°57'1111.5
2017-Jan-23 05:33N 50°24' W 000°40'1211.4
2017-Jan-23 04:32N 50°27' W 000°23'1211.9
2017-Jan-23 03:33N 50°30' W 000°05'1212.5
2017-Jan-23 02:33N 50°34' E 000°14'1313.1
2017-Jan-23 01:33N 50°38' E 000°33'1413.6
2017-Jan-23 00:33N 50°46' E 000°51'1413.4
2017-Jan-22 23:33N 50°54' E 001°08'1312.8
2017-Jan-22 22:33N 51°02' E 001°23'1211.9
2017-Jan-22 21:33N 51°10' E 001°38'1211.6
2017-Jan-22 20:33N 51°19' E 001°50'1212.2
2017-Jan-22 19:33N 51°29' E 002°01'1312.9
2017-Jan-22 18:33N 51°39' E 002°15'15412.6
2017-Jan-22 06:21N 53°34' E 005°02'1012.9
2017-Jan-22 05:33N 53°37' E 005°18'1312.5
2017-Jan-22 04:32N 53°41' E 005°39'9212.5
2017-Jan-21 21:08N 54°00' E 008°12'813.7
2017-Jan-21 20:33N 53°59' E 008°25'1212.4
2017-Jan-21 19:33N 53°53' E 008°43'1010.3
2017-Jan-21 18:33N 53°51' E 009°00'5 5.3
2017-Jan-21 17:33N 53°54' E 009°09'3 3.2
2017-Jan-21 16:33N 53°56' E 009°13'7 6.6
2017-Jan-21 15:33N 54°02' E 009°18'23 5.4
2017-Jan-21 11:11N 54°20' E 009°44'27 5.3
2017-Jan-21 06:07N 54°32' E 010°25'712.1
2017-Jan-21 05:33N 54°34' E 010°36'1312.6
2017-Jan-21 04:33N 54°36' E 010°58'1212.5
2017-Jan-21 03:33N 54°33' E 011°19'1212.4
2017-Jan-21 02:33N 54°28' E 011°38'1312.2
2017-Jan-21 01:29N 54°26' E 012°00'910.1
2017-Jan-21 00:33N 54°32' E 012°13'1211.7
2017-Jan-20 23:33N 54°41' E 012°26'2612.0
2017-Jan-20 21:21N 54°53' E 013°07'2212.3
2017-Jan-20 19:33N 55°00' E 013°44'1211.8
2017-Jan-20 18:32N 55°04' E 014°03'1211.8
2017-Jan-20 17:33N 55°13' E 014°17'1212.3
2017-Jan-20 16:33N 55°22' E 014°31'1312.5
2017-Jan-20 15:32N 55°30' E 014°48'1412.6
2017-Jan-20 14:27N 55°37' E 015°09'28712.0
2017-Jan-19 14:33N 59°43' E 019°47'1313.3
2017-Jan-19 13:33N 59°53' E 019°30'1313.4
2017-Jan-19 12:33N 60°03' E 019°13'  
2017-Jan-14 03:29N 60°00' E 019°25'  
Track history (hours):
 
Tides and Currents Weather Stations Pressure Air Temp Water Temp Dewpoint Dewpoint Depression Visibility Wind Speed Wind Dir Waves Ship Positions

Edisongracht

Last reported at 2017-Jan-23 15:26 UTC. Time now 2017-Jan-23 19:02 UTC.
Position N 49°40' W 003°45'.

Length 136 m; beam 19 m; draft 9 m.

Type: Cargo ship. MMSI: 244262000.

Date/timePositionNaut miles runAvg speedWind from/ knotsBaromVisibWave heightAir tempDewpointWater temp
2017-Jan-23 15:26N 49°40' W 003°45'1011.7
2017-Jan-23 14:33N 49°46' W 003°32'1212.0
2017-Jan-23 13:33N 49°52' W 003°16'1212.5
2017-Jan-23 12:33N 49°57' W 002°58'4213.9
2017-Jan-23 09:32N 50°09' W 001°55'1413.8
2017-Jan-23 08:30N 50°13' W 001°34'1213.1
2017-Jan-23 07:34N 50°17' W 001°16'1212.2
2017-Jan-23 06:33N 50°21' W 000°57'1111.5
2017-Jan-23 05:33N 50°24' W 000°40'1211.4
2017-Jan-23 04:32N 50°27' W 000°23'1211.9
2017-Jan-23 03:33N 50°30' W 000°05'1212.5
2017-Jan-23 02:33N 50°34' E 000°14'1313.1
2017-Jan-23 01:33N 50°38' E 000°33'1413.6
2017-Jan-23 00:33N 50°46' E 000°51'1413.4
2017-Jan-22 23:33N 50°54' E 001°08'1312.8
2017-Jan-22 22:33N 51°02' E 001°23'1211.9
2017-Jan-22 21:33N 51°10' E 001°38'1211.6
2017-Jan-22 20:33N 51°19' E 001°50'1212.2
2017-Jan-22 19:33N 51°29' E 002°01'1312.9
2017-Jan-22 18:33N 51°39' E 002°15'15412.6
2017-Jan-22 06:21N 53°34' E 005°02'1012.9
2017-Jan-22 05:33N 53°37' E 005°18'1312.5
2017-Jan-22 04:32N 53°41' E 005°39'9212.5
2017-Jan-21 21:08N 54°00' E 008°12'813.7
2017-Jan-21 20:33N 53°59' E 008°25'1212.4
2017-Jan-21 19:33N 53°53' E 008°43'1010.3
2017-Jan-21 18:33N 53°51' E 009°00'5 5.3
2017-Jan-21 17:33N 53°54' E 009°09'3 3.2
2017-Jan-21 16:33N 53°56' E 009°13'7 6.6
2017-Jan-21 15:33N 54°02' E 009°18'23 5.4
2017-Jan-21 11:11N 54°20' E 009°44'27 5.3
2017-Jan-21 06:07N 54°32' E 010°25'712.1
2017-Jan-21 05:33N 54°34' E 010°36'1312.6
2017-Jan-21 04:33N 54°36' E 010°58'1212.5
2017-Jan-21 03:33N 54°33' E 011°19'1212.4
2017-Jan-21 02:33N 54°28' E 011°38'1312.2
2017-Jan-21 01:29N 54°26' E 012°00'910.1
2017-Jan-21 00:33N 54°32' E 012°13'1211.7
2017-Jan-20 23:33N 54°41' E 012°26'2612.0
2017-Jan-20 21:21N 54°53' E 013°07'2212.3
2017-Jan-20 19:33N 55°00' E 013°44'1211.8
2017-Jan-20 18:32N 55°04' E 014°03'1211.8
2017-Jan-20 17:33N 55°13' E 014°17'1212.3
2017-Jan-20 16:33N 55°22' E 014°31'1312.5
2017-Jan-20 15:32N 55°30' E 014°48'1412.6
2017-Jan-20 14:27N 55°37' E 015°09'28712.0
2017-Jan-19 14:33N 59°43' E 019°47'1313.3
2017-Jan-19 13:33N 59°53' E 019°30'1313.4
2017-Jan-19 12:33N 60°03' E 019°13'  
2017-Jan-14 03:29N 60°00' E 019°25'  

Dump ship's entire track history